Time;durP1;ratioP1;P1;durP2;ratioP2;P2;SDS_P1;SDS_P2;PMS_P1;PMS_P2;Temp;Humidity;BMP_temperature;BMP_pressure;BME280_temperature;BME280_humidity;BME280_pressure;Samples;Min_cycle;Max_cycle;Signal;HPM_P1;HPM_P2
2022/08/25 00:01:19;;;;;;;8.02;7.20;;;24.70;60.50;;;;;;5116160;28;20023;-74
2022/08/25 00:03:44;;;;;;;9.45;7.47;;;24.60;60.70;;;;;;5116141;28;20050;-74
2022/08/25 00:06:11;;;;;;;9.30;7.72;;;24.50;61.20;;;;;;5116035;28;20032;-74
2022/08/25 00:08:37;;;;;;;9.75;7.05;;;24.40;61.70;;;;;;5116025;28;20399;-74
2022/08/25 00:11:12;;;;;;;11.88;7.22;;;24.40;61.70;;;;;;5098086;28;20043;-74
2022/08/25 00:13:42;;;;;;;8.98;6.47;;;24.40;61.80;;;;;;5114830;28;20024;-74
2022/08/25 00:16:10;;;;;;;7.82;6.55;;;24.40;62.10;;;;;;5114934;28;20020;-74
2022/08/25 00:18:36;;;;;;;8.35;6.30;;;24.40;62.10;;;;;;5115822;28;20024;-74
2022/08/25 00:21:03;;;;;;;6.43;5.82;;;24.40;62.20;;;;;;5113720;28;20024;-74
2022/08/25 00:23:28;;;;;;;8.05;6.65;;;24.40;62.20;;;;;;5115743;28;20077;-74
2022/08/25 00:25:54;;;;;;;7.72;6.10;;;24.40;62.00;;;;;;5114749;28;20032;-74
2022/08/25 00:28:20;;;;;;;8.30;6.45;;;24.50;62.10;;;;;;5114650;28;20032;-74
2022/08/25 00:30:46;;;;;;;9.20;6.32;;;24.50;61.80;;;;;;5115563;28;20028;-74
2022/08/25 00:33:12;;;;;;;9.35;6.32;;;24.60;61.30;;;;;;5115468;28;20058;-74
2022/08/25 00:35:40;;;;;;;7.90;6.68;;;24.70;61.20;;;;;;5115496;28;20032;-74
2022/08/25 00:38:07;;;;;;;9.00;6.50;;;24.70;60.70;;;;;;5114442;28;20083;-74
2022/08/25 00:40:33;;;;;;;7.93;6.05;;;24.70;60.40;;;;;;5115392;28;20020;-74
2022/08/25 00:42:59;;;;;;;7.45;6.47;;;24.70;60.00;;;;;;5115384;28;20028;-74
2022/08/25 00:45:25;;;;;;;7.80;6.60;;;24.70;60.10;;;;;;5115257;28;20020;-74
2022/08/25 00:47:51;;;;;;;10.35;7.25;;;24.70;59.90;;;;;;5115225;28;20027;-74
2022/08/25 00:50:17;;;;;;;8.77;6.60;;;24.70;60.10;;;;;;5115203;28;20024;-74
2022/08/25 00:52:49;;;;;;;9.23;6.93;;;24.70;59.60;;;;;;5115060;28;20020;-74
2022/08/25 00:55:44;;;;;;;;;;;24.70;59.60;;;;;;5115553;28;20066;-74
2022/08/25 00:58:20;;;;;;;10.85;6.75;;;24.70;59.60;;;;;;5110129;28;19908;-74
2022/08/25 01:00:49;;;;;;;7.63;6.82;;;24.60;59.20;;;;;;5114996;28;20026;-74
2022/08/25 01:03:17;;;;;;;8.30;6.82;;;24.50;59.90;;;;;;5114918;28;20023;-74
2022/08/25 01:05:45;;;;;;;8.35;6.25;;;24.50;60.40;;;;;;5114932;28;20028;-74
2022/08/25 01:08:11;;;;;;;7.68;6.63;;;24.50;59.40;;;;;;5114839;28;20027;-74
2022/08/25 01:10:40;;;;;;;8.77;7.10;;;24.50;59.30;;;;;;5114593;28;20020;-74
2022/08/25 01:13:12;;;;;;;7.32;6.63;;;24.60;59.10;;;;;;5113683;28;20031;-74
2022/08/25 01:15:37;;;;;;;7.88;6.78;;;24.60;58.60;;;;;;5113750;28;20054;-74
2022/08/25 01:18:03;;;;;;;8.25;6.95;;;24.60;58.70;;;;;;5113775;28;20028;-74
2022/08/25 01:20:31;;;;;;;9.07;7.65;;;24.50;58.70;;;;;;5114616;28;20021;-74
2022/08/25 01:22:58;;;;;;;13.20;7.72;;;24.50;58.80;;;;;;5114561;28;20102;-74
2022/08/25 01:25:28;;;;;;;9.70;7.80;;;24.50;58.50;;;;;;5114568;28;20088;-74
2022/08/25 01:27:54;;;;;;;8.57;7.68;;;24.50;58.20;;;;;;5114377;28;20028;-74
2022/08/25 01:30:20;;;;;;;8.98;7.90;;;24.50;58.10;;;;;;5114252;28;20028;-74
2022/08/25 01:32:46;;;;;;;8.43;7.63;;;24.50;58.10;;;;;;5114224;28;20031;-74
2022/08/25 01:35:12;;;;;;;8.85;7.70;;;24.40;58.00;;;;;;5113386;28;20020;-74
2022/08/25 01:37:38;;;;;;;9.65;8.30;;;24.40;57.90;;;;;;5114323;28;20080;-74
2022/08/25 01:40:05;;;;;;;11.48;7.70;;;24.40;57.70;;;;;;5114271;28;20028;-74
2022/08/25 01:42:43;;;;;;;9.45;7.35;;;24.30;57.80;;;;;;5114219;28;20024;-74
2022/08/25 01:45:09;;;;;;;9.35;8.13;;;24.20;58.00;;;;;;5114192;28;20031;-74
2022/08/25 01:47:36;;;;;;;11.18;7.85;;;24.10;58.50;;;;;;5114118;28;20017;-74
2022/08/25 01:50:03;;;;;;;8.40;7.53;;;23.90;58.80;;;;;;5114063;28;20016;-74
2022/08/25 01:52:44;;;;;;;8.00;7.03;;;23.90;58.80;;;;;;5112984;28;20069;-74
2022/08/25 01:55:09;;;;;;;9.43;7.78;;;23.80;59.10;;;;;;5114156;28;20087;-74
2022/08/25 01:57:35;;;;;;;9.52;7.28;;;23.80;59.10;;;;;;5113965;28;20028;-74
2022/08/25 02:00:03;;;;;;;10.60;7.38;;;23.80;59.40;;;;;;5112882;28;20100;-74
2022/08/25 02:02:29;;;;;;;12.50;7.32;;;23.80;59.20;;;;;;5113849;28;20027;-74
2022/08/25 02:04:54;;;;;;;8.80;7.18;;;23.70;59.00;;;;;;5112938;28;20024;-74
2022/08/25 02:07:20;;;;;;;8.18;7.38;;;23.70;58.90;;;;;;5113827;28;20028;-74
2022/08/25 02:09:45;;;;;;;9.82;7.50;;;23.60;58.50;;;;;;5113927;28;20024;-74
2022/08/25 02:12:11;;;;;;;9.25;7.95;;;23.50;57.90;;;;;;5113570;28;20055;-74
2022/08/25 02:14:37;;;;;;;8.90;7.38;;;23.50;58.10;;;;;;5113628;28;20030;-74
2022/08/25 02:17:04;;;;;;;9.55;7.38;;;23.50;57.90;;;;;;5113656;28;20024;-74
2022/08/25 02:19:30;;;;;;;13.15;7.90;;;23.50;58.10;;;;;;5113798;28;20031;-74
2022/08/25 02:21:56;;;;;;;7.55;6.82;;;23.50;58.30;;;;;;5112764;28;20012;-74
2022/08/25 02:24:22;;;;;;;9.35;7.30;;;23.30;58.80;;;;;;5095895;28;20521;-74
2022/08/25 02:26:47;;;;;;;10.13;7.15;;;23.30;59.40;;;;;;5113569;28;20036;-74
2022/08/25 02:29:15;;;;;;;11.70;8.13;;;23.30;59.20;;;;;;5112596;28;20054;-74
2022/08/25 02:31:42;;;;;;;8.70;7.30;;;23.20;60.00;;;;;;5113533;28;20016;-74
2022/08/25 02:34:09;;;;;;;8.32;7.22;;;23.10;60.10;;;;;;5112564;28;20058;-74
2022/08/25 02:36:36;;;;;;;12.25;7.50;;;23.20;60.30;;;;;;5113455;28;20081;-74
2022/08/25 02:39:07;;;;;;;8.27;6.97;;;23.30;60.00;;;;;;5113442;28;20032;-74
2022/08/25 02:41:32;;;;;;;7.78;6.97;;;23.30;59.40;;;;;;5113493;28;20073;-74
2022/08/25 02:44:00;;;;;;;10.63;7.40;;;23.40;59.30;;;;;;5116092;28;20024;-74
2022/08/25 02:46:26;;;;;;;19.02;8.35;;;23.30;59.00;;;;;;5117593;28;20035;-74
2022/08/25 02:48:52;;;;;;;9.27;7.55;;;23.40;58.80;;;;;;5117577;28;20036;-74
2022/08/25 02:51:20;;;;;;;8.60;7.00;;;23.30;58.90;;;;;;5117521;28;20079;-74
2022/08/25 02:53:46;;;;;;;10.32;7.53;;;23.40;59.80;;;;;;5117397;28;20053;-74
2022/08/25 02:56:15;;;;;;;10.80;7.35;;;23.30;58.70;;;;;;5117419;28;20031;-74
2022/08/25 02:58:41;;;;;;;9.13;7.22;;;23.30;58.50;;;;;;5117371;28;20047;-74
2022/08/25 03:01:10;;;;;;;9.52;7.38;;;23.30;58.40;;;;;;5117321;28;20031;-74
2022/08/25 03:03:39;;;;;;;8.82;7.93;;;23.30;58.10;;;;;;5117280;28;20024;-74
2022/08/25 03:06:08;;;;;;;10.57;8.10;;;23.30;58.10;;;;;;5116241;28;20050;-74
2022/08/25 03:08:35;;;;;;;11.02;8.18;;;23.30;58.10;;;;;;5116416;28;20048;-74
2022/08/25 03:11:00;;;;;;;11.07;7.53;;;23.20;57.90;;;;;;5116075;28;20100;-74
2022/08/25 03:13:26;;;;;;;9.52;8.00;;;23.20;57.70;;;;;;5117127;28;20036;-74
2022/08/25 03:15:53;;;;;;;11.60;7.50;;;23.20;57.60;;;;;;5117049;28;20076;-74
2022/08/25 03:18:18;;;;;;;9.45;7.72;;;23.20;57.30;;;;;;5116995;28;20020;-74
2022/08/25 03:20:44;;;;;;;11.48;7.85;;;23.10;57.60;;;;;;5116963;28;20028;-74
2022/08/25 03:23:10;;;;;;;10.25;7.80;;;23.10;57.70;;;;;;5116876;28;20115;-74
2022/08/25 03:28:25;;;;;;;11.15;7.45;;;23.00;57.70;;;;;;5117007;28;20062;-74
2022/08/25 03:30:52;;;;;;;9.68;7.43;;;22.90;58.10;;;;;;5115746;28;20032;-74
2022/08/25 03:33:18;;;;;;;9.82;7.35;;;22.80;58.80;;;;;;5116651;28;20027;-74
2022/08/25 03:35:44;;;;;;;11.93;8.10;;;22.70;59.30;;;;;;5115644;28;20066;-74
2022/08/25 03:38:10;;;;;;;11.90;7.93;;;22.60;59.80;;;;;;5115668;28;20032;-74
2022/08/25 03:40:37;;;;;;;11.20;7.32;;;22.50;59.80;;;;;;5116569;28;20020;-74
2022/08/25 03:43:02;;;;;;;11.27;7.57;;;22.50;61.10;;;;;;5116676;28;20030;-74
2022/08/25 03:45:28;;;;;;;12.63;8.27;;;22.50;60.20;;;;;;5116488;28;20027;-74
2022/08/25 03:47:54;;;;;;;9.32;7.53;;;22.50;61.10;;;;;;5115387;28;20036;-74
2022/08/25 03:50:21;;;;;;;9.20;7.30;;;22.50;60.30;;;;;;5116354;28;20042;-74
2022/08/25 03:52:54;;;;;;;11.80;7.72;;;22.50;60.20;;;;;;5115312;28;20032;-74
2022/08/25 03:55:22;;;;;;;9.32;7.32;;;22.40;60.40;;;;;;5116101;28;20040;-74
2022/08/25 03:57:48;;;;;;;13.05;7.57;;;22.30;60.40;;;;;;5116247;28;20111;-74
2022/08/25 04:00:14;;;;;;;8.05;7.05;;;22.30;60.60;;;;;;5115265;28;20032;-74
2022/08/25 04:02:40;;;;;;;13.05;7.70;;;22.30;60.70;;;;;;5116280;28;20035;-74
2022/08/25 04:05:06;;;;;;;9.30;7.30;;;22.20;60.80;;;;;;5116105;28;20103;-74
2022/08/25 04:07:32;;;;;;;9.50;7.80;;;22.20;60.40;;;;;;5115981;28;20026;-74
2022/08/25 04:09:58;;;;;;;9.48;7.40;;;22.20;60.20;;;;;;5116036;28;20044;-74
2022/08/25 04:12:24;;;;;;;11.68;7.72;;;22.10;60.10;;;;;;5115762;28;20513;-74
2022/08/25 04:14:49;;;;;;;13.27;7.88;;;22.10;60.70;;;;;;5115911;28;20027;-74
2022/08/25 04:17:16;;;;;;;9.38;7.53;;;22.10;61.00;;;;;;5115841;28;20024;-74
2022/08/25 04:19:41;;;;;;;7.93;6.53;;;22.10;61.40;;;;;;5115851;28;20012;-74
2022/08/25 04:22:07;;;;;;;9.73;7.20;;;22.20;60.90;;;;;;5115753;28;20028;-74
2022/08/25 04:24:33;;;;;;;14.13;7.22;;;22.30;61.20;;;;;;5115743;28;20034;-74
2022/08/25 04:26:58;;;;;;;9.07;7.32;;;22.30;59.50;;;;;;5115683;28;20032;-74
2022/08/25 04:29:25;;;;;;;9.15;6.57;;;22.30;59.30;;;;;;5115566;28;20049;-74
2022/08/25 04:31:52;;;;;;;9.35;7.20;;;22.40;59.00;;;;;;5115626;28;20031;-74
2022/08/25 04:34:21;;;;;;;8.07;6.68;;;22.50;58.80;;;;;;5114581;28;20039;-74
2022/08/25 04:36:49;;;;;;;9.93;7.13;;;22.40;58.80;;;;;;5115494;28;20050;-74
2022/08/25 04:39:15;;;;;;;8.90;7.10;;;22.40;59.40;;;;;;5115439;28;20032;-74
2022/08/25 04:41:40;;;;;;;13.65;7.80;;;22.30;59.20;;;;;;5115412;28;20020;-74
2022/08/25 04:44:06;;;;;;;10.95;7.43;;;22.20;59.50;;;;;;5115319;28;20032;-74
2022/08/25 04:46:33;;;;;;;11.15;7.22;;;22.20;60.00;;;;;;5115426;28;20032;-74
2022/08/25 04:49:00;;;;;;;10.15;6.95;;;22.20;60.10;;;;;;5115279;28;20024;-74
2022/08/25 04:51:39;;;;;;;13.45;7.15;;;22.20;60.00;;;;;;5114147;28;20058;-74
2022/08/25 04:54:11;;;;;;;8.32;7.00;;;22.10;59.60;;;;;;5115140;28;20032;-74
2022/08/25 04:56:39;;;;;;;7.57;6.10;;;22.10;60.00;;;;;;5115168;28;20024;-74
2022/08/25 04:59:08;;;;;;;7.47;5.93;;;22.10;59.80;;;;;;5115052;28;20020;-74
2022/08/25 05:01:34;;;;;;;8.10;5.70;;;22.10;59.50;;;;;;5115020;28;20016;-74
2022/08/25 05:04:03;;;;;;;8.35;5.97;;;22.20;60.30;;;;;;5115079;28;20028;-74
2022/08/25 05:06:29;;;;;;;12.43;5.70;;;22.20;59.20;;;;;;5113310;28;20044;-74
2022/08/25 05:08:56;;;;;;;8.23;5.70;;;22.30;58.90;;;;;;5114851;28;20024;-74
2022/08/25 05:11:23;;;;;;;9.25;5.95;;;22.40;58.70;;;;;;5114601;28;20040;-74
2022/08/25 05:13:50;;;;;;;8.13;5.78;;;22.40;58.60;;;;;;5114668;28;20024;-74
2022/08/25 05:16:17;;;;;;;8.65;5.95;;;22.40;58.70;;;;;;5114682;28;20028;-74
2022/08/25 05:18:44;;;;;;;7.30;5.57;;;22.40;58.70;;;;;;5114619;28;20024;-74
2022/08/25 05:21:19;;;;;;;10.60;6.47;;;22.50;58.70;;;;;;5114547;28;20020;-74
2022/08/25 05:23:45;;;;;;;10.10;6.30;;;22.50;58.80;;;;;;5114611;28;20486;-74
2022/08/25 05:26:17;;;;;;;7.35;6.15;;;22.50;58.80;;;;;;5114499;28;20028;-74
2022/08/25 05:28:43;;;;;;;6.30;5.70;;;22.50;58.60;;;;;;5114468;28;20046;-74
2022/08/25 05:31:11;;;;;;;7.57;5.82;;;22.50;58.30;;;;;;5113459;28;20190;-74
2022/08/25 05:33:38;;;;;;;6.95;6.18;;;22.50;58.10;;;;;;5114365;28;20379;-74
2022/08/25 05:36:05;;;;;;;8.13;6.38;;;22.60;58.10;;;;;;5113325;28;20024;-74
2022/08/25 05:38:31;;;;;;;8.80;5.97;;;22.60;58.00;;;;;;5114240;28;20016;-74
2022/08/25 05:41:01;;;;;;;8.32;5.85;;;22.60;57.80;;;;;;5113334;28;20026;-74
2022/08/25 05:43:27;;;;;;;7.35;6.13;;;22.60;57.90;;;;;;5114297;28;20024;-74
2022/08/25 05:45:57;;;;;;;10.32;5.50;;;22.70;58.00;;;;;;5114192;28;20028;-74
2022/08/25 05:48:25;;;;;;;6.82;5.70;;;22.70;57.70;;;;;;5113241;28;20040;-74
2022/08/25 05:50:58;;;;;;;8.32;6.10;;;22.70;58.00;;;;;;5114049;28;20076;-74
2022/08/25 05:53:26;;;;;;;9.02;6.40;;;22.60;58.40;;;;;;5114015;28;20039;-74
2022/08/25 05:55:53;;;;;;;9.27;6.95;;;22.60;59.20;;;;;;5113987;28;20043;-74
2022/08/25 05:58:20;;;;;;;8.23;6.63;;;22.60;59.70;;;;;;5113984;28;20022;-74
2022/08/25 06:00:46;;;;;;;10.07;6.68;;;22.60;59.80;;;;;;5113943;28;20032;-74
2022/08/25 06:03:11;;;;;;;11.88;6.22;;;22.50;60.30;;;;;;5113843;28;20039;-74
2022/08/25 06:05:37;;;;;;;9.23;6.30;;;22.50;60.40;;;;;;5113107;28;20099;-74
2022/08/25 06:08:03;;;;;;;8.23;6.15;;;22.60;60.00;;;;;;5113840;28;20081;-74
2022/08/25 06:10:28;;;;;;;9.45;5.93;;;22.60;59.70;;;;;;5113630;28;20020;-74
2022/08/25 06:12:54;;;;;;;10.30;6.10;;;22.60;59.10;;;;;;5112629;28;20471;-74
2022/08/25 06:15:22;;;;;;;10.23;6.63;;;22.70;59.50;;;;;;5113724;28;20032;-74
2022/08/25 06:17:48;;;;;;;10.00;6.25;;;22.70;58.60;;;;;;5112731;28;20020;-74
2022/08/25 06:20:17;;;;;;;10.93;6.10;;;22.80;58.00;;;;;;5113673;28;20021;-74
2022/08/25 06:22:43;;;;;;;12.38;6.75;;;22.80;57.80;;;;;;5113610;28;20050;-74
2022/08/25 06:25:11;;;;;;;11.18;6.78;;;22.90;57.80;;;;;;5113554;28;20088;-74
2022/08/25 06:27:37;;;;;;;12.20;6.70;;;22.90;57.70;;;;;;5113576;28;20020;-74
2022/08/25 06:30:08;;;;;;;11.02;6.18;;;22.90;57.40;;;;;;5112524;28;20103;-74
2022/08/25 06:32:36;;;;;;;10.05;6.10;;;22.90;56.80;;;;;;5113488;28;20416;-74
2022/08/25 06:35:04;;;;;;;10.07;5.97;;;23.00;56.80;;;;;;5113497;28;20020;-74
2022/08/25 06:37:29;;;;;;;8.60;6.00;;;23.00;56.90;;;;;;5113400;28;20024;-74
2022/08/25 06:39:55;;;;;;;10.23;6.72;;;23.10;57.10;;;;;;5113451;28;20035;-74
2022/08/25 06:42:21;;;;;;;8.20;5.70;;;23.20;57.20;;;;;;5113439;28;20028;-74
2022/08/25 06:44:46;;;;;;;9.00;6.10;;;23.20;56.90;;;;;;5113430;28;20024;-74
2022/08/25 06:47:14;;;;;;;8.23;6.13;;;23.30;56.90;;;;;;5113347;28;20161;-74
2022/08/25 06:49:41;;;;;;;9.05;6.07;;;23.30;56.70;;;;;;5113331;28;20028;-74
2022/08/25 06:52:07;;;;;;;7.82;6.30;;;23.30;56.70;;;;;;5112437;28;20028;-74
2022/08/25 06:54:33;;;;;;;12.10;5.78;;;23.40;56.40;;;;;;5112218;28;20108;-74
2022/08/25 06:56:59;;;;;;;8.40;5.78;;;23.50;56.30;;;;;;5113304;28;20028;-74
2022/08/25 06:59:25;;;;;;;9.70;5.72;;;23.50;55.70;;;;;;5113299;28;20105;-74
2022/08/25 07:01:51;;;;;;;7.15;5.45;;;23.60;56.00;;;;;;5113294;28;20024;-74
2022/08/25 07:04:17;;;;;;;11.43;5.90;;;23.60;56.10;;;;;;5113222;28;20025;-74
2022/08/25 07:06:43;;;;;;;20.83;18.58;;;23.70;56.50;;;;;;5113168;28;20050;-74
2022/08/25 07:09:10;;;;;;;9.98;7.88;;;23.70;56.30;;;;;;5112027;28;20024;-74
2022/08/25 07:11:36;;;;;;;10.80;6.07;;;23.90;57.20;;;;;;5112025;28;20044;-74
2022/08/25 07:14:04;;;;;;;10.60;5.97;;;23.90;55.60;;;;;;5112290;28;20029;-74
2022/08/25 07:16:30;;;;;;;10.02;5.47;;;24.00;55.10;;;;;;5113226;28;20077;-74
2022/08/25 07:18:57;;;;;;;7.63;6.10;;;24.10;55.20;;;;;;5113091;28;20031;-73
2022/08/25 07:21:24;;;;;;;7.55;5.10;;;24.10;54.90;;;;;;5113058;28;20068;-74
2022/08/25 07:23:50;;;;;;;9.00;5.80;;;24.20;55.00;;;;;;5113017;28;20043;-74
2022/08/25 07:26:21;;;;;;;7.88;5.75;;;24.30;54.60;;;;;;5112176;28;20029;-74
2022/08/25 07:28:47;;;;;;;10.85;6.20;;;24.30;54.40;;;;;;5112587;28;20030;-74
2022/08/25 07:31:13;;;;;;;8.15;5.78;;;24.40;54.60;;;;;;5115926;28;20028;-74
2022/08/25 07:35:13;;;;;;;9.18;5.15;;;24.50;54.30;;;;;;5115672;28;20502;-74
2022/08/25 07:36:24;;;;;;;8.38;5.15;;;24.50;53.80;;;;;;5116683;28;20039;-74
2022/08/25 07:38:50;;;;;;;9.82;5.38;;;24.60;54.00;;;;;;5116643;28;20036;-74
2022/08/25 07:41:16;;;;;;;9.27;5.97;;;24.60;53.60;;;;;;5115543;28;20020;-74
2022/08/25 07:43:41;;;;;;;7.60;4.95;;;24.70;54.20;;;;;;5115554;28;20028;-74
2022/08/25 07:46:07;;;;;;;6.85;4.32;;;24.90;53.80;;;;;;5116495;28;20035;-74
2022/08/25 07:48:33;;;;;;;5.65;4.60;;;24.90;54.00;;;;;;5115591;28;20038;-74
2022/08/25 07:50:58;;;;;;;9.20;5.00;;;25.00;53.50;;;;;;5116432;28;20074;-74
2022/08/25 07:53:24;;;;;;;7.25;4.88;;;25.10;52.70;;;;;;5116255;28;20039;-74
2022/08/25 07:55:50;;;;;;;7.93;4.80;;;25.20;53.10;;;;;;5116321;28;20032;-74
2022/08/25 07:58:17;;;;;;;7.45;4.70;;;25.30;52.10;;;;;;5116265;28;20050;-74
2022/08/25 08:00:47;;;;;;;9.23;4.40;;;25.30;51.30;;;;;;5116225;28;20079;-74
2022/08/25 08:03:12;;;;;;;7.50;4.70;;;25.40;50.60;;;;;;5116257;28;20040;-74
2022/08/25 08:05:40;;;;;;;7.22;4.40;;;25.50;50.50;;;;;;5098367;28;20043;-74
2022/08/25 08:08:05;;;;;;;6.30;4.22;;;25.50;50.20;;;;;;5116103;28;20027;-74
2022/08/25 08:10:31;;;;;;;9.00;4.38;;;25.60;51.90;;;;;;5115824;28;20028;-74
2022/08/25 08:12:57;;;;;;;6.72;4.13;;;25.70;51.50;;;;;;5115017;28;20063;-74
2022/08/25 08:15:22;;;;;;;8.27;4.15;;;25.80;51.60;;;;;;5115935;28;20036;-74
2022/08/25 08:17:48;;;;;;;6.60;3.95;;;25.90;51.60;;;;;;5115881;28;20024;-74
2022/08/25 08:20:15;;;;;;;7.38;4.45;;;26.10;51.90;;;;;;5115830;28;20024;-74
2022/08/25 08:22:42;;;;;;;5.22;4.03;;;26.10;51.50;;;;;;5115753;28;20059;-74
2022/08/25 08:25:10;;;;;;;5.90;3.95;;;26.20;52.30;;;;;;5115782;28;20035;-74
2022/08/25 08:27:36;;;;;;;7.35;3.88;;;26.30;51.00;;;;;;5115702;28;20032;-74
2022/08/25 08:30:03;;;;;;;5.57;3.65;;;26.40;51.00;;;;;;5115587;28;20107;-74
2022/08/25 08:32:29;;;;;;;5.50;4.25;;;26.50;50.60;;;;;;5115548;28;20023;-74
2022/08/25 08:34:54;;;;;;;7.25;3.88;;;26.50;50.20;;;;;;5115501;28;20032;-74
2022/08/25 08:37:21;;;;;;;6.00;3.92;;;26.60;49.50;;;;;;5115478;28;20032;-74
2022/08/25 08:39:47;;;;;;;6.22;3.90;;;26.60;49.50;;;;;;5115329;28;20016;-74
2022/08/25 08:42:27;;;;;;;4.47;3.33;;;26.70;50.10;;;;;;5114572;28;20032;-74
2022/08/25 08:45:11;;;;;;;5.07;3.65;;;26.80;50.30;;;;;;5115504;28;20024;-74
2022/08/25 08:47:57;;;;;;;7.38;4.07;;;26.90;50.30;;;;;;5115485;28;20081;-74
2022/08/25 08:50:46;;;;;;;6.07;4.00;;;27.00;48.30;;;;;;5115455;28;20025;-74
2022/08/25 08:53:28;;;;;;;8.15;4.07;;;27.00;48.90;;;;;;5115140;28;20020;-74
2022/08/25 08:56:00;;;;;;;5.25;3.55;;;27.00;49.20;;;;;;5115179;28;20017;-74
2022/08/25 08:58:43;;;;;;;4.88;3.75;;;27.10;49.40;;;;;;5115266;28;20088;-74
2022/08/25 09:01:14;;;;;;;9.05;3.70;;;27.20;49.70;;;;;;5115064;28;20031;-74
2022/08/25 09:04:23;;;;;;;6.93;4.07;;;27.20;49.20;;;;;;5115050;28;20028;-74
2022/08/25 09:06:49;;;;;;;7.90;3.70;;;27.30;48.50;;;;;;5104243;28;20040;-74
2022/08/25 09:09:29;;;;;;;9.07;4.10;;;27.40;48.30;;;;;;5113945;28;20024;-74
2022/08/25 09:12:13;;;;;;;8.68;4.05;;;27.50;47.40;;;;;;5113719;28;20526;-74
2022/08/25 09:14:45;;;;;;;6.03;3.90;;;27.60;46.40;;;;;;5113807;28;20032;-74
2022/08/25 09:17:21;;;;;;;7.60;3.85;;;27.60;47.20;;;;;;5114933;28;20030;-74
2022/08/25 09:20:08;;;;;;;5.20;3.70;;;27.70;46.60;;;;;;5114836;28;20027;-74
2022/08/25 09:22:52;;;;;;;9.20;3.92;;;27.90;47.30;;;;;;5114638;28;20023;-74
2022/08/25 09:25:30;;;;;;;5.85;4.00;;;27.90;47.60;;;;;;5113626;28;20031;-74
2022/08/25 09:28:54;;;;;;;7.45;4.18;;;28.10;47.80;;;;;;5114645;28;20020;-74
2022/08/25 09:31:26;;;;;;;7.72;3.90;;;28.20;47.70;;;;;;5075487;28;20055;-74
2022/08/25 09:33:56;;;;;;;6.63;4.40;;;28.30;46.20;;;;;;5092322;28;20105;-74
2022/08/25 09:36:22;;;;;;;9.05;4.05;;;28.40;47.10;;;;;;5103910;28;20078;-74
2022/08/25 09:38:48;;;;;;;6.50;3.55;;;28.50;46.80;;;;;;5113442;28;20028;-73
2022/08/25 09:41:17;;;;;;;8.88;3.85;;;28.50;45.30;;;;;;5114253;28;20028;-72
2022/08/25 09:43:52;;;;;;;5.22;3.53;;;28.60;45.60;;;;;;5114222;28;20047;-72
2022/08/25 09:46:27;;;;;;;4.85;3.55;;;28.70;46.10;;;;;;5114255;28;20035;-72
2022/08/25 09:48:55;;;;;;;7.95;3.80;;;28.90;45.00;;;;;;5114154;28;20383;-74
2022/08/25 09:51:28;;;;;;;5.68;3.50;;;29.00;45.40;;;;;;5112939;28;20024;-74
2022/08/25 09:54:14;;;;;;;8.63;3.80;;;29.10;43.80;;;;;;5114053;28;20031;-74
2022/08/25 09:57:00;;;;;;;5.35;3.60;;;29.10;43.20;;;;;;5114230;28;20042;-74
2022/08/25 09:59:34;;;;;;;5.78;3.60;;;29.20;44.20;;;;;;5113984;28;20035;-74
2022/08/25 10:02:03;;;;;;;5.72;3.67;;;29.10;43.20;;;;;;5113925;28;20088;-74
2022/08/25 10:04:38;;;;;;;5.85;3.53;;;29.20;42.90;;;;;;5112956;28;20021;-74
2022/08/25 10:07:28;;;;;;;7.32;3.35;;;29.30;43.70;;;;;;5113935;28;20028;-74
2022/08/25 10:10:16;;;;;;;9.52;3.55;;;29.40;41.80;;;;;;5113872;28;20024;-74
2022/08/25 10:12:48;;;;;;;7.95;3.70;;;29.50;42.40;;;;;;5113779;28;20047;-74
2022/08/25 10:15:24;;;;;;;6.25;3.47;;;29.60;42.10;;;;;;5113840;28;20068;-74
2022/08/25 10:17:49;;;;;;;7.70;3.35;;;29.70;41.10;;;;;;5113926;28;20020;-74
2022/08/25 10:20:25;;;;;;;5.13;3.17;;;29.80;40.80;;;;;;5113719;28;20021;-74
2022/08/25 10:22:52;;;;;;;4.13;2.80;;;29.90;39.70;;;;;;5113715;28;20092;-74
2022/08/25 10:25:27;;;;;;;6.20;3.08;;;29.90;39.70;;;;;;5113653;28;20034;-74
2022/08/25 10:28:12;;;;;;;6.75;3.45;;;30.00;39.50;;;;;;5113556;28;20043;-74
2022/08/25 10:31:13;;;;;;;4.60;2.83;;;30.10;38.50;;;;;;5113637;28;20027;-72
2022/08/25 10:34:03;;;;;;;5.53;3.47;;;30.10;38.70;;;;;;5113659;28;20083;-72
2022/08/25 10:36:57;;;;;;;4.60;2.95;;;30.20;38.80;;;;;;5113551;28;20027;-72
2022/08/25 10:39:54;;;;;;;4.47;3.10;;;30.30;37.30;;;;;;5113669;28;20066;-72
2022/08/25 10:42:29;;;;;;;4.72;2.80;;;30.30;37.30;;;;;;5113626;28;20017;-72
2022/08/25 10:45:42;;;;;;;5.72;2.40;;;30.40;36.90;;;;;;5113470;28;20020;-71
2022/08/25 10:48:26;;;;;;;5.65;3.00;;;30.40;36.00;;;;;;5113440;28;20031;-72
2022/08/25 10:51:23;;;;;;;6.03;2.50;;;30.40;36.60;;;;;;5113398;28;20056;-72
2022/08/25 10:54:16;;;;;;;3.75;2.60;;;30.50;34.90;;;;;;5113292;28;20034;-72
2022/08/25 10:57:00;;;;;;;5.53;2.80;;;30.50;35.10;;;;;;5113325;28;20021;-72
2022/08/25 10:59:54;;;;;;;3.15;2.33;;;30.70;36.90;;;;;;5113485;28;20020;-72
2022/08/25 11:02:56;;;;;;;5.53;2.92;;;30.90;36.70;;;;;;5113338;28;20020;-71
2022/08/25 11:05:27;;;;;;;7.15;2.92;;;31.00;34.40;;;;;;5116621;28;20031;-71
2022/08/25 11:08:02;;;;;;;4.28;2.42;;;31.00;34.60;;;;;;5117455;28;20020;-72
2022/08/25 11:10:55;;;;;;;5.38;2.60;;;31.20;35.80;;;;;;5117144;28;20028;-71
2022/08/25 11:13:35;;;;;;;5.00;2.25;;;31.30;34.70;;;;;;5117111;28;20042;-71
2022/08/25 11:16:10;;;;;;;4.13;2.25;;;31.40;34.30;;;;;;5117145;28;20024;-72
2022/08/25 11:18:51;;;;;;;3.85;2.60;;;31.50;34.60;;;;;;5117154;28;20043;-72
2022/08/25 11:21:27;;;;;;;3.45;2.20;;;31.60;34.10;;;;;;5117054;28;20016;-71
2022/08/25 11:24:12;;;;;;;4.63;2.22;;;31.70;32.10;;;;;;5117013;28;20024;-71
2022/08/25 11:26:45;;;;;;;4.25;2.20;;;31.70;32.90;;;;;;5116940;28;20016;-72
2022/08/25 11:29:17;;;;;;;4.57;2.30;;;31.80;33.60;;;;;;5116802;28;20024;-71
2022/08/25 11:31:49;;;;;;;7.53;2.78;;;31.90;31.20;;;;;;5116803;28;20425;-72
2022/08/25 11:34:15;;;;;;;3.42;2.10;;;31.80;30.70;;;;;;5116739;28;20103;-72
2022/08/25 11:36:48;;;;;;;5.93;2.25;;;31.90;32.30;;;;;;5116700;28;20031;-71
2022/08/25 11:39:23;;;;;;;3.45;1.90;;;31.90;31.30;;;;;;5115922;28;20019;-72
2022/08/25 11:42:22;;;;;;;5.75;2.50;;;31.90;29.90;;;;;;5116806;28;20016;-71
2022/08/25 11:44:57;;;;;;;2.50;2.03;;;32.00;30.80;;;;;;5116642;28;20057;-72
2022/08/25 11:47:43;;;;;;;4.03;2.05;;;32.00;30.80;;;;;;5116536;28;20020;-71
2022/08/25 11:50:25;;;;;;;2.58;2.10;;;32.00;28.30;;;;;;5105290;28;20040;-71
2022/08/25 11:52:58;;;;;;;6.70;3.03;;;32.00;29.90;;;;;;5116373;28;20024;-71
2022/08/25 11:55:35;;;;;;;4.18;2.53;;;32.10;30.00;;;;;;5116310;28;20020;-71
2022/08/25 11:58:36;;;;;;;3.55;2.10;;;32.10;30.00;;;;;;5115328;28;20040;-72
2022/08/25 12:01:03;;;;;;;5.70;2.40;;;32.10;29.90;;;;;;5116275;28;20097;-71
2022/08/25 12:03:35;;;;;;;4.80;2.45;;;32.20;30.40;;;;;;5116231;28;20088;-71
2022/08/25 12:06:24;;;;;;;3.88;2.33;;;32.10;29.20;;;;;;5116167;28;20100;-71
2022/08/25 12:08:58;;;;;;;2.75;2.30;;;32.10;30.50;;;;;;5115080;28;20028;-71
2022/08/25 12:11:53;;;;;;;7.75;2.30;;;32.20;30.40;;;;;;5115889;28;20056;-72
2022/08/25 12:14:25;;;;;;;3.83;2.80;;;32.30;30.20;;;;;;5115937;28;20055;-72
2022/08/25 12:16:50;;;;;;;5.82;2.30;;;32.30;29.90;;;;;;5116024;28;20031;-71
2022/08/25 12:19:33;;;;;;;3.33;2.63;;;32.30;29.70;;;;;;5115914;28;20024;-71
2022/08/25 12:22:02;;;;;;;4.78;2.72;;;32.40;30.20;;;;;;5116049;28;20024;-71
2022/08/25 12:24:43;;;;;;;4.05;2.55;;;32.40;30.30;;;;;;5114662;28;20028;-72
2022/08/25 12:27:50;;;;;;;4.57;2.53;;;32.50;30.00;;;;;;5115775;28;20024;-71
2022/08/25 12:30:26;;;;;;;3.25;2.63;;;32.30;28.80;;;;;;5110591;28;20040;-72
2022/08/25 12:33:01;;;;;;;4.13;2.50;;;32.10;29.50;;;;;;5115735;28;20021;-71
2022/08/25 12:35:50;;;;;;;6.10;2.72;;;32.00;30.00;;;;;;5115737;28;20028;-71
2022/08/25 12:38:41;;;;;;;5.38;2.60;;;32.00;30.80;;;;;;5115707;28;20055;-71
2022/08/25 12:41:13;;;;;;;3.40;2.08;;;32.00;31.80;;;;;;5108777;28;20032;-71
2022/08/25 12:43:42;;;;;;;3.50;2.45;;;32.10;32.20;;;;;;5115496;28;20020;-72
2022/08/25 12:46:28;;;;;;;2.70;2.30;;;32.20;31.70;;;;;;5115402;28;20024;-72
2022/08/25 12:49:19;;;;;;;5.53;2.55;;;32.30;30.90;;;;;;5111338;28;20065;-72
2022/08/25 12:52:26;;;;;;;4.47;2.55;;;32.30;30.70;;;;;;5111136;28;20040;-71
2022/08/25 12:54:58;;;;;;;6.47;2.30;;;32.30;30.90;;;;;;5093069;28;20063;-71
2022/08/25 12:57:40;;;;;;;3.25;2.35;;;32.40;31.50;;;;;;5111589;28;20127;-71
2022/08/25 13:00:20;;;;;;;4.25;2.88;;;32.30;29.70;;;;;;5115070;28;20031;-71
2022/08/25 13:03:00;;;;;;;6.18;2.80;;;32.40;30.40;;;;;;5115181;28;20032;-71
2022/08/25 13:06:03;;;;;;;7.18;2.80;;;32.40;30.50;;;;;;5115180;28;20059;-72
2022/08/25 13:09:00;;;;;;;7.78;2.65;;;32.50;30.00;;;;;;5115017;28;20098;-71
2022/08/25 13:11:29;;;;;;;4.85;2.92;;;32.50;30.40;;;;;;5107087;28;20044;-71